»·PEaware :: N117SB KPSP-KSNA

N117SB :: KPSP-KSNA

FLIGHT INFORMATION

Flight Status: Arrived
Operator: Privately registered:
United States
More flights under this callsign
Pilot: Dean S. (16265)
Aircraft: DIAMOND DA-42 TWINSTAR
(DA42)
More flights by this aircraft type
Origin: KPSP Palm Springs Intl
United States
Destination: KSNA John Wayne-Orange Co
United States
More flights between these airports :: More routes between these airports
Route: AHLEX V372 JOGIT WOKRO
File this flight plan on PilotEdge
Remarks:
Altitude:
(Current/Filed)
6,500ft
Speed:
(Current/Filed)
140kts
Departed: 09-Oct-17 05:54 PM
Arrived: 09-Oct-17 06:30 PM
Distance/Time
Traveled:
69nm/0:36
Distance/Time
To Go:
Arrived

Flight Plot

Page will automatically refresh every two minutes.

Flight plan parsing failed; only flown route is shown


Map Options




Map Legend


Flown Route
Filed Route
Departure Airport
Arrival Airport
Navaid (VOR, NDB)
Fix

Horizontal Profiles

Position Reports

Time Latitude Longitude Heading Altitude Ground
Speed
09-Oct-17 17:39 33.825175 -116.508926 106 480ft 0kts
09-Oct-17 17:40 33.825175 -116.508926 106 480ft 0kts
09-Oct-17 17:41 33.825174 -116.508925 106 480ft 0kts
09-Oct-17 17:42 33.825174 -116.508925 106 480ft 0kts
09-Oct-17 17:43 33.825174 -116.508924 106 480ft 0kts
09-Oct-17 17:43 33.825174 -116.508924 106 480ft 0kts
09-Oct-17 17:45 33.825174 -116.508923 106 480ft 0kts
09-Oct-17 17:45 33.825174 -116.508923 106 480ft 0kts
09-Oct-17 17:47 33.825174 -116.508922 106 480ft 0kts
09-Oct-17 17:48 33.825174 -116.508922 106 480ft 0kts
09-Oct-17 17:48 33.825173 -116.508921 106 480ft 0kts
09-Oct-17 17:49 33.825173 -116.508921 106 480ft 0kts
09-Oct-17 17:51 33.825173 -116.508920 106 480ft 0kts
09-Oct-17 17:51 33.824912 -116.507500 119 480ft 12kts
09-Oct-17 17:52 33.824449 -116.504829 137 480ft 11kts
09-Oct-17 17:53 33.821076 -116.501791 137 480ft 18kts
09-Oct-17 17:55 33.817371 -116.498381 95 480ft 7kts
09-Oct-17 17:55 33.817585 -116.497891 55 480ft 0kts
09-Oct-17 17:56 33.817615 -116.497838 55 480ft 3kts
09-Oct-17 17:57 33.820079 -116.498977 320 480ft 37kts
09-Oct-17 17:58 33.837965 -116.514972 324 995ft 88kts
09-Oct-17 17:59 33.853696 -116.537618 293 1933ft 85kts
09-Oct-17 18:00 33.865355 -116.563306 303 2834ft 89kts
09-Oct-17 18:01 33.874706 -116.591534 286 3741ft 91kts
09-Oct-17 18:02 33.881047 -116.621337 276 4663ft 93kts
09-Oct-17 18:03 33.883102 -116.652452 273 5597ft 93kts
09-Oct-17 18:04 33.884902 -116.683884 274 6508ft 95kts
09-Oct-17 18:05 33.889182 -116.721153 278 6817ft 137kts
09-Oct-17 18:06 33.894986 -116.772655 273 6547ft 163kts
09-Oct-17 18:07 33.898172 -116.825421 274 6548ft 155kts
09-Oct-17 18:08 33.892555 -116.874972 238 6527ft 154kts
09-Oct-17 18:09 33.869920 -116.918482 237 6588ft 154kts
09-Oct-17 18:10 33.844829 -116.961385 236 6586ft 159kts
09-Oct-17 18:11 33.829258 -117.011724 255 6572ft 161kts
09-Oct-17 18:12 33.819320 -117.064439 258 6559ft 162kts
09-Oct-17 18:13 33.804803 -117.115562 246 6546ft 162kts
09-Oct-17 18:14 33.785518 -117.164427 243 6540ft 162kts
09-Oct-17 18:15 33.775298 -117.215934 272 6539ft 161kts
09-Oct-17 18:16 33.779832 -117.269678 278 6530ft 162kts
09-Oct-17 18:17 33.787880 -117.322934 279 6543ft 160kts
09-Oct-17 18:18 33.783888 -117.376218 261 6544ft 161kts
09-Oct-17 18:19 33.779259 -117.429900 264 6537ft 161kts
09-Oct-17 18:20 33.773745 -117.483806 262 6521ft 162kts
09-Oct-17 18:21 33.769787 -117.537680 266 6519ft 162kts
09-Oct-17 18:22 33.769321 -117.591206 270 6470ft 153kts
09-Oct-17 18:23 33.768740 -117.641644 268 6008ft 129kts
09-Oct-17 18:24 33.771211 -117.678513 284 5272ft 106kts
09-Oct-17 18:25 33.782222 -117.711390 300 4385ft 101kts
09-Oct-17 18:26 33.799440 -117.737853 297 3330ft 93kts
09-Oct-17 18:27 33.796614 -117.766511 256 2688ft 77kts
09-Oct-17 18:28 33.790063 -117.791227 247 2227ft 76kts
09-Oct-17 18:29 33.773053 -117.805812 209 2033ft 78kts
09-Oct-17 18:30 33.753115 -117.817151 200 1873ft 79kts
09-Oct-17 18:31 33.733050 -117.830689 211 1332ft 87kts
09-Oct-17 18:32 33.712156 -117.844486 207 718ft 82kts
09-Oct-17 18:33 33.693178 -117.856123 206 384ft 74kts
09-Oct-17 18:34 33.677314 -117.865907 69 59ft 3kts
09-Oct-17 18:35 33.676789 -117.865544 152 59ft 7kts
09-Oct-17 18:36 33.674343 -117.866953 209 59ft 9kts
09-Oct-17 18:37 33.672422 -117.866868 173 59ft 4kts

Navigation Log

Ident Type
Flight plan parsing failed, navigation log unavailable